createdAt,value
2023-03-22T00:00:17.422Z,75.33
2023-03-22T00:02:46.201Z,75.65
2023-03-22T00:05:15.635Z,75.83
2023-03-22T00:07:44.377Z,75.70
2023-03-22T00:10:13.033Z,75.80
2023-03-22T00:12:43.044Z,75.44
2023-03-22T00:15:12.467Z,75.42
2023-03-22T00:17:42.046Z,75.40
2023-03-22T00:20:11.741Z,75.37
2023-03-22T00:22:40.463Z,75.42
2023-03-22T00:25:09.448Z,75.66
2023-03-22T00:27:38.117Z,75.29
2023-03-22T00:30:10.176Z,76.34
2023-03-22T00:32:39.352Z,77.76
2023-03-22T00:35:08.392Z,78.12
2023-03-22T00:37:38.617Z,77.93
2023-03-22T00:40:09.800Z,77.75
2023-03-22T00:42:38.421Z,76.46
2023-03-22T00:45:11.489Z,76.48
2023-03-22T00:47:40.346Z,76.28
2023-03-22T00:50:09.781Z,76.63
2023-03-22T00:52:38.408Z,77.04
2023-03-22T00:55:07.572Z,77.34
2023-03-22T00:57:36.228Z,77.64
2023-03-22T01:00:10.248Z,78.35
2023-03-22T01:02:41.474Z,77.75
2023-03-22T01:05:15.998Z,76.77
2023-03-22T01:07:44.811Z,76.32
2023-03-22T01:10:13.534Z,76.77
2023-03-22T01:12:42.139Z,76.84
2023-03-22T01:15:11.510Z,76.96
2023-03-22T01:17:41.573Z,77.70
2023-03-22T01:20:11.249Z,77.80
2023-03-22T01:22:40.541Z,78.22
2023-03-22T01:25:10.017Z,78.27
2023-03-22T01:27:38.756Z,77.37
2023-03-22T01:30:08.715Z,77.85
2023-03-22T01:32:38.370Z,78.36
2023-03-22T01:35:08.925Z,78.29
2023-03-22T01:37:37.619Z,78.55
2023-03-22T01:40:07.659Z,78.50
2023-03-22T01:42:36.315Z,79.00
2023-03-22T01:45:31.215Z,79.30
2023-03-22T01:48:02.912Z,79.43
2023-03-22T01:50:33.017Z,80.11
2023-03-22T01:53:05.149Z,80.71
2023-03-22T01:55:34.290Z,80.83
2023-03-22T01:58:03.567Z,81.18
2023-03-22T02:00:32.665Z,81.31
2023-03-22T02:03:01.338Z,81.98
2023-03-22T02:05:30.519Z,82.14
2023-03-22T02:08:00.985Z,82.62
2023-03-22T02:10:29.793Z,82.67
2023-03-22T02:13:08.348Z,82.73
2023-03-22T02:15:39.944Z,83.27
2023-03-22T02:18:20.299Z,82.53
2023-03-22T02:21:22.630Z,83.78
2023-03-22T02:24:24.779Z,83.11
2023-03-22T02:27:17.474Z,83.37
2023-03-22T02:29:49.351Z,83.36
2023-03-22T02:33:08.657Z,83.53
2023-03-22T02:35:47.416Z,84.00
2023-03-22T02:38:31.797Z,84.01
2023-03-22T02:41:10.618Z,85.08
2023-03-22T02:43:46.122Z,85.25
2023-03-22T02:46:19.410Z,85.95
2023-03-22T02:48:54.545Z,85.59
2023-03-22T02:51:26.079Z,85.04
2023-03-22T02:53:57.875Z,85.43
2023-03-22T02:56:31.182Z,84.18
2023-03-22T02:59:01.834Z,84.90
2023-03-22T03:01:32.198Z,85.42
2023-03-22T03:04:04.719Z,86.22
2023-03-22T03:06:35.743Z,85.35
2023-03-22T03:09:05.149Z,85.08
2023-03-22T03:11:35.145Z,85.33
2023-03-22T03:14:03.788Z,85.96
2023-03-22T03:16:34.632Z,86.33
2023-03-22T03:19:09.284Z,86.85
2023-03-22T03:21:45.271Z,85.28
2023-03-22T03:24:20.023Z,85.44
2023-03-22T03:26:55.906Z,85.96
2023-03-22T03:29:34.122Z,86.64
2023-03-22T03:32:06.418Z,86.11
2023-03-22T03:34:37.092Z,86.68
2023-03-22T03:37:08.207Z,86.83
2023-03-22T03:39:39.860Z,86.97
2023-03-22T03:42:13.001Z,86.25
2023-03-22T03:44:41.916Z,87.09
2023-03-22T03:47:12.012Z,87.81
2023-03-22T03:49:41.944Z,87.73
2023-03-22T03:52:10.927Z,87.50
2023-03-22T03:54:39.692Z,87.03
2023-03-22T03:57:09.686Z,87.09
2023-03-22T03:59:38.271Z,87.73
2023-03-22T04:02:06.855Z,87.90
2023-03-22T04:04:35.696Z,88.07
2023-03-22T04:07:07.094Z,88.20
2023-03-22T04:09:37.240Z,87.11
2023-03-22T04:12:06.480Z,86.93
2023-03-22T04:14:36.700Z,87.60
2023-03-22T04:17:05.291Z,88.43
2023-03-22T04:19:34.021Z,88.72
2023-03-22T04:22:02.711Z,89.24
2023-03-22T04:24:31.342Z,89.17
2023-03-22T04:26:59.926Z,89.15
2023-03-22T04:29:32.200Z,88.92
2023-03-22T04:32:02.152Z,89.11
2023-03-22T04:34:31.582Z,88.93
2023-03-22T04:37:02.548Z,90.14
2023-03-22T04:39:31.237Z,88.59
2023-03-22T04:41:59.902Z,89.15
2023-03-22T04:44:28.849Z,90.01
2023-03-22T04:46:57.548Z,89.83
2023-03-22T04:49:27.736Z,89.34
2023-03-22T04:51:56.756Z,89.24
2023-03-22T04:54:25.761Z,89.84
2023-03-22T04:56:54.427Z,90.36
2023-03-22T04:59:23.088Z,89.56
2023-03-22T05:01:52.520Z,90.34
2023-03-22T05:04:21.273Z,90.05
2023-03-22T05:06:51.288Z,90.55
2023-03-22T05:09:22.172Z,90.99
2023-03-22T05:11:51.979Z,90.72
2023-03-22T05:14:20.684Z,90.97
2023-03-22T05:16:49.412Z,90.27
2023-03-22T05:19:22.417Z,89.90
2023-03-22T05:21:57.872Z,89.76
2023-03-22T05:24:26.618Z,90.44
2023-03-22T05:26:55.215Z,90.41
2023-03-22T05:29:24.379Z,90.77
2023-03-22T05:31:53.103Z,91.58
2023-03-22T05:34:21.949Z,92.07
2023-03-22T05:36:52.452Z,92.57
2023-03-22T05:39:21.127Z,92.74
2023-03-22T05:41:49.668Z,92.22
2023-03-22T05:44:18.283Z,92.06
2023-03-22T05:46:46.973Z,91.66
2023-03-22T05:49:15.607Z,91.65
2023-03-22T05:51:44.341Z,91.46
2023-03-22T05:54:14.354Z,91.39
2023-03-22T05:56:44.093Z,91.63
2023-03-22T05:59:12.661Z,91.88
2023-03-22T06:01:41.306Z,91.63
2023-03-22T06:04:09.988Z,91.48
2023-03-22T06:06:39.263Z,91.64
2023-03-22T06:09:16.835Z,91.27
2023-03-22T06:11:47.458Z,90.80
2023-03-22T06:14:16.117Z,91.38
2023-03-22T06:16:44.840Z,91.69
2023-03-22T06:19:13.537Z,91.56
2023-03-22T06:21:42.364Z,90.95
2023-03-22T06:24:11.146Z,91.08
2023-03-22T06:26:39.772Z,91.10
2023-03-22T06:29:09.794Z,90.78
2023-03-22T06:31:38.427Z,90.41
2023-03-22T06:34:07.201Z,89.86
2023-03-22T06:36:35.790Z,90.02
2023-03-22T06:39:05.232Z,89.75
2023-03-22T06:41:33.879Z,88.77
2023-03-22T06:44:03.569Z,89.04
2023-03-22T06:46:33.529Z,88.58
2023-03-22T06:49:02.200Z,89.16
2023-03-22T06:51:30.883Z,88.64
2023-03-22T06:53:59.664Z,88.76
2023-03-22T06:56:28.320Z,88.48
2023-03-22T06:58:58.019Z,88.54
2023-03-22T07:01:26.713Z,88.14
2023-03-22T07:03:56.727Z,86.99
2023-03-22T07:06:25.455Z,86.14
2023-03-22T07:08:54.139Z,85.63
2023-03-22T07:11:22.926Z,84.66
2023-03-22T07:13:51.692Z,84.89
2023-03-22T07:16:20.427Z,84.98
2023-03-22T07:18:49.255Z,84.57
2023-03-22T07:21:19.247Z,84.15
2023-03-22T07:23:47.914Z,83.14
2023-03-22T07:26:16.518Z,81.05
2023-03-22T07:28:46.084Z,80.28
2023-03-22T07:31:15.387Z,79.96
2023-03-22T07:33:44.210Z,80.37
2023-03-22T07:36:13.233Z,76.45
2023-03-22T07:38:43.140Z,74.92
2023-03-22T07:41:11.723Z,73.19
2023-03-22T07:43:52.772Z,72.66
2023-03-22T07:46:24.026Z,71.17
2023-03-22T07:48:52.684Z,70.54
2023-03-22T07:51:21.296Z,69.37
2023-03-22T07:53:51.265Z,69.15
2023-03-22T07:56:19.897Z,68.86
2023-03-22T07:58:48.564Z,69.65
2023-03-22T08:01:17.272Z,68.07
2023-03-22T08:03:46.161Z,67.06
2023-03-22T08:06:16.304Z,65.07
2023-03-22T08:08:45.036Z,65.19
2023-03-22T08:11:15.000Z,65.51
2023-03-22T08:13:43.628Z,65.40
2023-03-22T08:16:12.275Z,61.98
2023-03-22T08:18:42.160Z,61.73
2023-03-22T08:21:12.194Z,61.80
2023-03-22T08:23:42.359Z,60.45
2023-03-22T08:26:11.840Z,60.13
2023-03-22T08:28:42.010Z,60.58
2023-03-22T08:31:13.898Z,58.10
2023-03-22T08:33:44.367Z,58.08
2023-03-22T08:36:15.715Z,58.91
2023-03-22T08:38:45.175Z,57.42
2023-03-22T08:41:15.773Z,57.54
2023-03-22T08:43:45.819Z,57.39
2023-03-22T08:46:14.553Z,56.53
2023-03-22T08:48:50.342Z,57.39
2023-03-22T08:51:19.482Z,56.58
2023-03-22T08:53:48.399Z,57.93
2023-03-22T08:56:17.526Z,57.87
2023-03-22T08:58:47.711Z,56.07
2023-03-22T09:01:20.414Z,57.24
2023-03-22T09:03:49.102Z,55.83
2023-03-22T09:06:17.747Z,55.75
2023-03-22T09:08:46.970Z,55.05
2023-03-22T09:11:17.785Z,55.32
2023-03-22T09:13:48.124Z,56.86
2023-03-22T09:16:17.158Z,54.96
2023-03-22T09:18:45.906Z,56.86
2023-03-22T09:21:14.563Z,57.08
2023-03-22T09:23:47.563Z,56.57
2023-03-22T09:26:16.197Z,56.29
2023-03-22T09:28:45.966Z,56.42
2023-03-22T09:31:17.007Z,55.54
2023-03-22T09:33:47.199Z,55.02
2023-03-22T09:36:15.907Z,55.02
2023-03-22T09:38:45.385Z,54.58
2023-03-22T09:41:18.370Z,55.23
2023-03-22T09:43:50.567Z,54.30
2023-03-22T09:46:25.882Z,54.25
2023-03-22T09:48:54.750Z,54.90
2023-03-22T09:51:30.800Z,54.45
2023-03-22T09:53:59.440Z,54.85
2023-03-22T09:56:30.956Z,53.70
2023-03-22T09:59:05.170Z,52.10
2023-03-22T10:01:40.748Z,53.22
2023-03-22T10:04:44.956Z,52.26
2023-03-22T10:07:27.070Z,52.48
2023-03-22T10:10:05.846Z,52.01
2023-03-22T10:12:39.126Z,49.11
2023-03-22T10:15:13.128Z,50.66
2023-03-22T10:17:47.402Z,50.76
2023-03-22T10:20:25.443Z,49.54
2023-03-22T10:22:55.816Z,50.85
2023-03-22T10:25:29.236Z,48.59
2023-03-22T10:27:58.943Z,49.56
2023-03-22T10:30:29.045Z,48.47
2023-03-22T10:33:02.929Z,49.26
2023-03-22T10:35:32.754Z,48.78
2023-03-22T10:38:03.667Z,48.47
2023-03-22T10:40:34.049Z,48.99
2023-03-22T10:43:05.476Z,49.09
2023-03-22T10:45:36.172Z,48.58
2023-03-22T10:48:10.709Z,46.56
2023-03-22T10:50:41.337Z,45.35
2023-03-22T10:53:13.890Z,45.70
2023-03-22T10:55:44.011Z,45.85
2023-03-22T10:58:14.729Z,45.36
2023-03-22T11:00:48.168Z,44.32
2023-03-22T11:03:28.494Z,44.98
2023-03-22T11:06:07.841Z,43.23
2023-03-22T11:08:40.417Z,43.63
2023-03-22T11:11:18.094Z,43.75
2023-03-22T11:13:52.078Z,44.58
2023-03-22T11:16:21.081Z,43.06
2023-03-22T11:18:51.194Z,43.64
2023-03-22T11:21:21.226Z,42.60
2023-03-22T11:23:55.996Z,40.55
2023-03-22T11:26:31.185Z,41.84
2023-03-22T11:29:06.702Z,40.81
2023-03-22T11:31:57.418Z,39.88
2023-03-22T11:34:29.569Z,39.08
2023-03-22T11:37:01.077Z,40.33
2023-03-22T11:39:30.598Z,41.58
2023-03-22T11:42:01.486Z,39.98
2023-03-22T11:44:34.085Z,41.51
2023-03-22T11:47:04.478Z,40.86
2023-03-22T11:49:40.142Z,41.74
2023-03-22T11:52:11.137Z,41.58
2023-03-22T11:54:42.252Z,41.29
2023-03-22T11:57:15.466Z,40.65
2023-03-22T11:59:48.707Z,40.50
2023-03-22T12:02:21.705Z,38.57
2023-03-22T12:04:57.356Z,37.55
2023-03-22T12:07:26.583Z,37.40
2023-03-22T12:10:00.244Z,37.65
2023-03-22T12:12:31.732Z,37.14
2023-03-22T12:15:02.409Z,37.46
2023-03-22T12:17:36.629Z,38.02
2023-03-22T12:20:13.960Z,37.76
2023-03-22T12:22:47.710Z,38.99
2023-03-22T12:25:18.450Z,38.20
2023-03-22T12:27:49.624Z,37.69
2023-03-22T12:30:21.242Z,38.16
2023-03-22T12:32:52.476Z,36.89
2023-03-22T12:35:26.279Z,37.00
2023-03-22T12:37:57.117Z,36.60
2023-03-22T12:40:27.416Z,36.54
2023-03-22T12:43:01.725Z,36.14
2023-03-22T12:45:32.326Z,36.49
2023-03-22T12:48:06.277Z,35.48
2023-03-22T12:50:40.857Z,36.46
2023-03-22T12:53:14.134Z,36.89
2023-03-22T12:55:43.600Z,36.88
2023-03-22T12:58:17.999Z,37.62
2023-03-22T13:00:49.002Z,37.49
2023-03-22T13:03:24.548Z,36.07
2023-03-22T13:06:03.380Z,35.77
2023-03-22T13:09:05.250Z,36.09
2023-03-22T13:11:33.870Z,36.88
2023-03-22T13:14:02.550Z,37.25
2023-03-22T13:16:49.610Z,38.73
2023-03-22T13:19:28.679Z,37.80
2023-03-22T13:22:21.042Z,35.44
2023-03-22T13:25:01.042Z,36.48
2023-03-22T13:27:40.231Z,37.05
2023-03-22T13:30:17.183Z,36.83
2023-03-22T13:32:51.634Z,36.55
2023-03-22T13:35:27.934Z,35.65
2023-03-22T13:38:03.807Z,35.51
2023-03-22T13:40:37.699Z,35.32
2023-03-22T13:43:26.204Z,34.06
2023-03-22T13:46:04.426Z,35.42
2023-03-22T13:48:43.337Z,35.62
2023-03-22T13:51:13.789Z,35.73
2023-03-22T13:53:47.352Z,36.83
2023-03-22T13:56:30.525Z,37.49
2023-03-22T13:58:59.540Z,37.97
2023-03-22T14:01:30.994Z,37.03
2023-03-22T14:04:01.461Z,35.36
2023-03-22T14:06:33.694Z,35.17
2023-03-22T14:09:06.240Z,34.44
2023-03-22T14:11:40.340Z,34.59
2023-03-22T14:14:12.717Z,36.89
2023-03-22T14:16:43.159Z,35.45
2023-03-22T14:19:18.716Z,35.93
